Time;durP1;ratioP1;P1;durP2;ratioP2;P2;SDS_P1;SDS_P2;PMS_P1;PMS_P2;Temp;Humidity;BMP_temperature;BMP_pressure;BME280_temperature;BME280_humidity;BME280_pressure;Samples;Min_cycle;Max_cycle;Signal;HPM_P1;HPM_P2
2023/06/26 00:00:24;;;;;;;;;;;21.40;92.10;;;;;;5054346;28;20581;-78
2023/06/26 00:02:50;;;;;;;;;;;21.30;92.60;;;;;;5050524;28;20435;-78
2023/06/26 00:05:15;;;;;;;;;;;21.30;92.70;;;;;;5059602;28;20070;-78
2023/06/26 00:07:41;;;;;;;;;;;21.10;93.10;;;;;;5057842;28;19919;-78
2023/06/26 00:10:06;;;;;;;;;;;21.10;93.50;;;;;;5065523;28;19967;-78
2023/06/26 00:12:32;;;;;;;;;;;21.10;93.90;;;;;;5060605;28;19952;-77
2023/06/26 00:14:58;;;;;;;;;;;21.10;94.10;;;;;;5059259;28;19919;-78
2023/06/26 00:17:24;;;;;;;;;;;21.10;94.20;;;;;;5052243;28;20318;-78
2023/06/26 00:19:50;;;;;;;;;;;21.20;94.30;;;;;;5060651;28;20024;-78
2023/06/26 00:22:15;;;;;;;;;;;21.10;94.50;;;;;;5054030;28;19913;-78
2023/06/26 00:24:41;;;;;;;;;;;21.20;94.70;;;;;;5033960;28;19919;-78
2023/06/26 00:27:07;;;;;;;;;;;21.40;94.30;;;;;;5062288;28;19939;-79
2023/06/26 00:29:32;;;;;;;;;;;21.50;94.20;;;;;;5059059;28;19912;-79
2023/06/26 00:31:58;;;;;;;;;;;21.50;94.10;;;;;;5065720;28;20391;-79
2023/06/26 00:34:23;;;;;;;;;;;21.60;93.80;;;;;;5064590;28;19971;-79
2023/06/26 00:36:49;;;;;;;;;;;21.60;93.90;;;;;;5063973;28;20391;-79
2023/06/26 00:39:15;;;;;;;;;;;21.60;93.90;;;;;;5062710;28;19912;-79
2023/06/26 00:41:40;;;;;;;;;;;21.60;93.80;;;;;;5070155;28;19995;-79
2023/06/26 00:44:06;;;;;;;;;;;21.60;94.00;;;;;;5060252;28;19920;-79
2023/06/26 00:46:32;;;;;;;;;;;21.50;94.20;;;;;;5063957;28;19932;-79
2023/06/26 00:49:03;;;;;;;;;;;21.60;94.20;;;;;;5060947;28;19920;-79
2023/06/26 00:51:29;;;;;;;;;;;21.50;94.60;;;;;;5062951;28;20779;-79
2023/06/26 00:53:54;;;;;;;;;;;21.40;94.60;;;;;;5062435;28;19924;-79
2023/06/26 00:56:20;;;;;;;;;;;21.40;94.80;;;;;;5066548;28;19997;-79
2023/06/26 00:58:46;;;;;;;;;;;21.60;94.50;;;;;;5071806;28;19916;-79
2023/06/26 01:01:16;;;;;;;;;;;21.70;94.00;;;;;;5063979;28;19916;-80
2023/06/26 01:03:42;;;;;;;;;;;21.80;93.70;;;;;;5064117;28;19966;-79
2023/06/26 01:06:11;;;;;;;;;;;21.80;93.70;;;;;;5064353;28;19928;-79
2023/06/26 01:08:37;;;;;;;;;;;21.60;93.70;;;;;;5058747;28;19952;-79
2023/06/26 01:11:03;;;;;;;;;;;21.70;93.60;;;;;;5063960;28;19916;-79
2023/06/26 01:13:29;;;;;;;;;;;21.70;93.40;;;;;;5062182;28;19927;-80
2023/06/26 01:15:54;;;;;;;;;;;21.70;93.20;;;;;;5065641;28;19916;-80
2023/06/26 01:18:20;;;;;;;;;;;21.50;93.00;;;;;;5060293;28;20574;-79
2023/06/26 01:20:46;;;;;;;;;;;21.60;92.80;;;;;;5046287;28;20005;-80
2023/06/26 01:23:14;;;;;;;;;;;21.60;92.40;;;;;;5061323;28;19916;-80
2023/06/26 01:25:40;;;;;;;;;;;21.60;92.40;;;;;;5075233;28;19929;-79
2023/06/26 01:28:06;;;;;;;;;;;21.50;92.20;;;;;;5064026;28;19977;-79
2023/06/26 01:30:32;;;;;;;;;;;21.40;92.20;;;;;;5063786;28;20474;-80
2023/06/26 01:32:58;;;;;;;;;;;21.30;92.30;;;;;;5062717;28;19925;-80
2023/06/26 01:35:24;;;;;;;;;;;21.00;93.30;;;;;;5063787;28;19923;-80
2023/06/26 01:37:50;;;;;;;;;;;20.90;93.60;;;;;;5062887;28;19916;-80
2023/06/26 01:40:15;;;;;;;;;;;20.60;94.20;;;;;;5063433;28;20283;-80
2023/06/26 01:42:41;;;;;;;;;;;20.60;94.20;;;;;;5061825;28;20335;-79
2023/06/26 01:45:10;;;;;;;;;;;20.50;94.20;;;;;;5063259;28;19975;-79
2023/06/26 01:47:37;;;;;;;;;;;20.40;94.10;;;;;;5044096;28;19925;-79
2023/06/26 01:50:06;;;;;;;;;;;20.40;94.00;;;;;;5063111;28;20294;-80
2023/06/26 01:52:31;;;;;;;;;;;20.40;94.10;;;;;;5055598;28;21452;-80
2023/06/26 01:55:03;;;;;;;;;;;20.30;93.90;;;;;;5044963;28;19963;-80
2023/06/26 01:57:29;;;;;;;;;;;20.10;94.30;;;;;;5062457;28;20405;-80
2023/06/26 01:59:56;;;;;;;;;;;19.80;94.70;;;;;;5059883;28;19919;-80
2023/06/26 02:02:23;;;;;;;;;;;19.80;94.80;;;;;;5058836;28;19923;-80
2023/06/26 02:04:49;;;;;;;;;;;19.70;95.40;;;;;;5042560;28;19912;-80
2023/06/26 02:07:15;;;;;;;;;;;19.70;95.20;;;;;;5043782;28;19924;-80
2023/06/26 02:09:40;;;;;;;;;;;19.80;94.90;;;;;;5060651;28;19970;-80
2023/06/26 02:12:06;;;;;;;;;;;19.80;94.90;;;;;;5061987;28;19912;-81
2023/06/26 02:14:31;;;;;;;;;;;19.70;95.00;;;;;;5054411;28;19970;-80
2023/06/26 02:16:57;;;;;;;;;;;19.50;95.30;;;;;;5062402;28;19920;-80
2023/06/26 02:19:23;;;;;;;;;;;19.70;94.90;;;;;;5060948;28;19912;-80
2023/06/26 02:21:49;;;;;;;;;;;19.50;95.20;;;;;;5062315;28;19924;-81
2023/06/26 02:24:15;;;;;;;;;;;19.70;95.30;;;;;;5062939;28;19963;-80
2023/06/26 02:26:40;;;;;;;;;;;19.70;95.00;;;;;;5040285;28;20015;-80
2023/06/26 02:29:06;;;;;;;;;;;19.80;95.10;;;;;;5062245;28;19916;-79
2023/06/26 02:31:31;;;;;;;;;;;20.00;94.60;;;;;;5044564;28;19931;-79
2023/06/26 02:33:57;;;;;;;;;;;20.00;94.70;;;;;;5061965;28;20375;-79
2023/06/26 02:36:23;;;;;;;;;;;20.10;94.40;;;;;;5062391;28;19923;-79
2023/06/26 02:38:48;;;;;;;;;;;20.10;94.50;;;;;;5056933;28;20033;-79
2023/06/26 02:41:14;;;;;;;;;;;20.10;94.30;;;;;;5061123;28;19924;-80
2023/06/26 02:43:39;;;;;;;;;;;19.90;94.90;;;;;;5058092;28;19924;-79
2023/06/26 02:46:05;;;;;;;;;;;19.90;94.70;;;;;;5062712;28;19987;-80
2023/06/26 02:48:30;;;;;;;;;;;19.90;94.80;;;;;;5043077;28;20035;-79
2023/06/26 02:50:56;;;;;;;;;;;20.00;94.50;;;;;;5044205;28;19947;-79
2023/06/26 02:53:22;;;;;;;;;;;19.90;94.70;;;;;;5054426;28;19983;-79
2023/06/26 02:55:47;;;;;;;;;;;19.70;94.70;;;;;;5048684;28;20310;-79
2023/06/26 02:58:13;;;;;;;;;;;19.90;94.90;;;;;;5055324;28;19920;-80
2023/06/26 03:00:41;;;;;;;;;;;19.90;95.00;;;;;;5049846;28;19917;-79
2023/06/26 03:03:07;;;;;;;;;;;19.70;95.00;;;;;;5055609;28;19956;-79
2023/06/26 03:05:32;;;;;;;;;;;19.60;95.00;;;;;;5060095;28;19962;-79
2023/06/26 03:07:58;;;;;;;;;;;19.70;95.10;;;;;;5046226;28;19916;-79
2023/06/26 03:10:24;;;;;;;;;;;19.70;95.20;;;;;;5062609;28;20547;-79
2023/06/26 03:12:49;;;;;;;;;;;19.70;94.90;;;;;;5062561;28;19912;-78
2023/06/26 03:15:15;;;;;;;;;;;19.70;95.00;;;;;;5052983;28;19924;-79
2023/06/26 03:17:40;;;;;;;;;;;19.70;95.30;;;;;;5052808;28;19912;-79
2023/06/26 03:20:07;;;;;;;;;;;19.80;94.90;;;;;;5062079;28;19946;-79
2023/06/26 03:22:33;;;;;;;;;;;19.70;95.10;;;;;;5056869;28;19963;-80
2023/06/26 03:24:58;;;;;;;;;;;19.50;95.50;;;;;;5051028;28;20011;-79
2023/06/26 03:27:24;;;;;;;;;;;19.50;95.50;;;;;;5057423;28;19921;-80
2023/06/26 03:29:50;;;;;;;;;;;19.60;95.60;;;;;;5051209;28;19913;-80
2023/06/26 03:32:15;;;;;;;;;;;19.70;95.30;;;;;;5062591;28;19912;-80
2023/06/26 03:34:41;;;;;;;;;;;19.60;95.30;;;;;;5055171;28;20015;-80
2023/06/26 03:37:06;;;;;;;;;;;19.60;95.40;;;;;;5058611;28;20343;-81
2023/06/26 03:39:32;;;;;;;;;;;19.50;95.60;;;;;;5059173;28;19952;-81
2023/06/26 03:42:00;;;;;;;;;;;19.50;95.70;;;;;;5043581;28;19917;-81
2023/06/26 03:44:26;;;;;;;;;;;19.40;96.00;;;;;;5061070;28;19939;-81
2023/06/26 03:46:51;;;;;;;;;;;19.50;96.10;;;;;;5057984;28;20386;-81
2023/06/26 03:49:17;;;;;;;;;;;19.40;95.90;;;;;;5061416;28;19920;-80
2023/06/26 03:51:43;;;;;;;;;;;19.50;96.00;;;;;;5061218;28;19923;-80
2023/06/26 03:54:09;;;;;;;;;;;19.40;96.10;;;;;;5059669;28;19917;-79
2023/06/26 03:56:35;;;;;;;;;;;19.50;96.10;;;;;;5056801;28;19917;-79
2023/06/26 03:59:00;;;;;;;;;;;19.50;96.10;;;;;;5050732;28;19973;-78
2023/06/26 04:01:26;;;;;;;;;;;19.40;96.30;;;;;;5062186;28;19924;-79
2023/06/26 04:03:51;;;;;;;;;;;19.40;96.30;;;;;;5052426;28;19924;-79
2023/06/26 04:06:17;;;;;;;;;;;19.40;96.30;;;;;;5062254;28;19939;-78
2023/06/26 04:08:43;;;;;;;;;;;19.40;96.50;;;;;;5061210;28;19919;-77
2023/06/26 04:11:08;;;;;;;;;;;19.30;96.70;;;;;;5044029;28;19913;-77
2023/06/26 04:13:34;;;;;;;;;;;19.40;96.70;;;;;;5056188;28;20003;-78
2023/06/26 04:15:59;;;;;;;;;;;19.40;96.50;;;;;;5047042;28;20394;-78
2023/06/26 04:18:25;;;;;;;;;;;19.40;96.40;;;;;;5049298;28;19919;-78
2023/06/26 04:21:04;;;;;;;;;;;19.40;96.50;;;;;;5051338;28;19918;-78
2023/06/26 04:23:30;;;;;;;;;;;19.50;96.40;;;;;;5052841;28;19919;-78
2023/06/26 04:25:58;;;;;;;;;;;19.40;96.70;;;;;;5061505;28;20505;-79
2023/06/26 04:28:23;;;;;;;;;;;19.50;96.60;;;;;;5061533;28;19913;-78
2023/06/26 04:30:49;;;;;;;;;;;19.50;96.30;;;;;;5056038;28;19913;-78
2023/06/26 04:33:15;;;;;;;;;;;19.50;96.60;;;;;;5054065;28;20295;-78
2023/06/26 04:35:40;;;;;;;;;;;19.60;96.20;;;;;;5060714;28;19919;-78
2023/06/26 04:38:06;;;;;;;;;;;19.60;96.00;;;;;;5059684;28;19919;-78
2023/06/26 04:40:32;;;;;;;;;;;19.80;95.80;;;;;;5059821;28;19920;-78
2023/06/26 04:42:57;;;;;;;;;;;19.80;95.80;;;;;;5060501;28;19920;-80
2023/06/26 04:45:23;;;;;;;;;;;19.60;95.80;;;;;;5065318;28;20554;-80
2023/06/26 04:47:48;;;;;;;;;;;19.70;95.40;;;;;;5063483;28;19939;-80
2023/06/26 04:50:14;;;;;;;;;;;19.80;95.30;;;;;;5062411;28;19916;-80
2023/06/26 04:52:40;;;;;;;;;;;19.80;95.00;;;;;;5065659;28;19913;-80
2023/06/26 04:55:05;;;;;;;;;;;19.90;95.00;;;;;;5055820;28;19913;-79
2023/06/26 04:57:31;;;;;;;;;;;19.90;95.20;;;;;;5066597;28;19944;-79
2023/06/26 04:59:56;;;;;;;;;;;19.80;94.80;;;;;;5039593;28;19986;-79
2023/06/26 05:02:22;;;;;;;;;;;19.70;94.90;;;;;;5044177;28;20453;-79
2023/06/26 05:04:48;;;;;;;;;;;19.90;94.60;;;;;;5041938;28;20013;-80
2023/06/26 05:07:13;;;;;;;;;;;19.90;94.50;;;;;;5065474;28;20027;-80
2023/06/26 05:09:39;;;;;;;;;;;19.90;94.70;;;;;;5067185;28;19916;-80
2023/06/26 05:12:05;;;;;;;;;;;19.90;94.40;;;;;;5063221;28;19916;-79
2023/06/26 05:14:30;;;;;;;;;;;19.90;94.30;;;;;;5059520;28;19917;-80
2023/06/26 05:16:56;;;;;;;;;;;20.00;94.20;;;;;;5063015;28;20015;-79
2023/06/26 05:19:21;;;;;;;;;;;19.90;94.10;;;;;;5061739;28;20038;-80
2023/06/26 05:21:47;;;;;;;;;;;19.90;94.20;;;;;;5063753;28;19927;-79
2023/06/26 05:24:13;;;;;;;;;;;19.90;94.00;;;;;;5062776;28;20442;-79
2023/06/26 05:26:39;;;;;;;;;;;19.80;94.10;;;;;;5068777;28;19936;-79
2023/06/26 05:29:05;;;;;;;;;;;19.60;94.40;;;;;;5064296;28;19978;-79
2023/06/26 05:31:33;;;;;;;;;;;19.80;94.10;;;;;;5060274;28;20606;-79
2023/06/26 05:34:00;;;;;;;;;;;19.80;94.00;;;;;;5044845;28;19917;-79
2023/06/26 05:36:26;;;;;;;;;;;19.80;93.80;;;;;;5063452;28;19916;-79
2023/06/26 05:38:52;;;;;;;;;;;19.90;93.80;;;;;;5060974;28;19943;-79
2023/06/26 05:41:17;;;;;;;;;;;19.80;93.60;;;;;;5062767;28;19964;-78
2023/06/26 05:43:43;;;;;;;;;;;19.80;94.00;;;;;;5058204;28;19999;-80
2023/06/26 05:46:09;;;;;;;;;;;19.80;94.00;;;;;;5060344;28;19924;-81
2023/06/26 05:48:34;;;;;;;;;;;19.80;93.90;;;;;;5061812;28;19913;-82
2023/06/26 05:51:00;;;;;;;;;;;19.70;94.00;;;;;;5078448;28;20746;-81
2023/06/26 05:53:26;;;;;;;;;;;19.90;93.90;;;;;;5061318;28;20412;-81
2023/06/26 05:55:51;;;;;;;;;;;19.90;93.70;;;;;;5058615;28;19912;-82
2023/06/26 05:58:17;;;;;;;;;;;20.00;93.40;;;;;;5046474;28;20016;-81
2023/06/26 06:00:43;;;;;;;;;;;19.90;93.70;;;;;;5054412;28;19994;-82
2023/06/26 06:03:10;;;;;;;;;;;19.90;93.50;;;;;;5052857;28;19916;-86
2023/06/26 06:05:36;;;;;;;;;;;19.90;93.20;;;;;;5055849;28;19917;-82
2023/06/26 06:08:01;;;;;;;;;;;19.90;93.30;;;;;;5057899;28;19948;-80
2023/06/26 06:10:27;;;;;;;;;;;19.80;93.50;;;;;;5064773;28;20466;-81
2023/06/26 06:12:54;;;;;;;;;;;19.90;93.50;;;;;;5067228;28;19913;-80
2023/06/26 06:15:20;;;;;;;;;;;20.00;93.40;;;;;;5049237;28;19962;-81
2023/06/26 06:17:45;;;;;;;;;;;20.30;93.20;;;;;;5062383;28;20812;-78
2023/06/26 06:20:11;;;;;;;;;;;20.40;92.60;;;;;;5062902;28;19999;-78
2023/06/26 06:22:36;;;;;;;;;;;20.70;92.20;;;;;;5056458;28;19948;-78
2023/06/26 06:25:02;;;;;;;;;;;20.70;92.10;;;;;;5063759;28;19920;-78
2023/06/26 06:27:28;;;;;;;;;;;20.50;92.30;;;;;;5063648;28;19928;-81
2023/06/26 06:29:53;;;;;;;;;;;20.60;92.30;;;;;;5056976;28;19912;-80
2023/06/26 06:32:19;;;;;;;;;;;20.60;92.20;;;;;;5057574;28;19912;-80
2023/06/26 06:34:45;;;;;;;;;;;20.80;92.10;;;;;;5057524;28;19920;-80
2023/06/26 06:37:10;;;;;;;;;;;21.10;91.20;;;;;;5058019;28;20637;-80
2023/06/26 06:39:36;;;;;;;;;;;21.10;90.80;;;;;;5059827;28;20403;-80
2023/06/26 06:42:01;;;;;;;;;;;21.40;90.50;;;;;;5066206;28;19912;-80
2023/06/26 06:44:27;;;;;;;;;;;21.50;90.00;;;;;;5062996;28;19922;-80
2023/06/26 06:46:53;;;;;;;;;;;21.50;90.00;;;;;;5063179;28;20483;-80
2023/06/26 06:49:18;;;;;;;;;;;21.50;89.60;;;;;;5062497;28;20298;-80
2023/06/26 06:51:44;;;;;;;;;;;21.60;89.10;;;;;;5062934;28;20035;-80
2023/06/26 06:54:09;;;;;;;;;;;21.70;88.10;;;;;;5062763;28;19971;-80
2023/06/26 06:56:35;;;;;;;;;;;21.70;87.20;;;;;;5060059;28;19967;-80
2023/06/26 06:59:01;;;;;;;;;;;21.90;87.00;;;;;;5053381;28;19923;-80
2023/06/26 07:01:26;;;;;;;;;;;21.70;87.60;;;;;;5065643;28;20006;-80
2023/06/26 07:03:52;;;;;;;;;;;21.90;86.80;;;;;;5045937;28;20019;-80
2023/06/26 07:06:17;;;;;;;;;;;22.00;86.20;;;;;;5049194;28;20313;-80
2023/06/26 07:08:43;;;;;;;;;;;21.80;86.90;;;;;;5052745;28;19912;-80
2023/06/26 07:11:09;;;;;;;;;;;22.00;86.20;;;;;;5062020;28;19912;-80
2023/06/26 07:13:34;;;;;;;;;;;22.00;84.90;;;;;;5053435;28;19912;-80
2023/06/26 07:16:00;;;;;;;;;;;22.10;85.00;;;;;;5062585;28;19920;-80
2023/06/26 07:18:25;;;;;;;;;;;21.90;85.40;;;;;;5062431;28;19913;-80
2023/06/26 07:20:51;;;;;;;;;;;21.90;85.50;;;;;;5062190;28;19998;-80
2023/06/26 07:23:16;;;;;;;;;;;22.00;85.00;;;;;;5063247;28;20007;-80
2023/06/26 07:25:42;;;;;;;;;;;21.90;84.40;;;;;;5062474;28;19928;-80
2023/06/26 07:28:11;;;;;;;;;;;22.10;84.60;;;;;;5058194;28;19920;-80
2023/06/26 07:30:37;;;;;;;;;;;22.10;84.40;;;;;;5061552;28;19913;-80
2023/06/26 07:33:02;;;;;;;;;;;22.20;83.70;;;;;;5062731;28;19979;-80
2023/06/26 07:35:28;;;;;;;;;;;22.40;82.80;;;;;;5075324;28;19917;-80
2023/06/26 07:37:54;;;;;;;;;;;22.10;82.00;;;;;;5062780;28;19920;-80
2023/06/26 07:40:19;;;;;;;;;;;22.40;82.00;;;;;;5062153;28;19916;-80
2023/06/26 07:42:46;;;;;;;;;;;22.50;81.70;;;;;;5061764;28;19916;-80
2023/06/26 07:45:12;;;;;;;;;;;22.60;80.30;;;;;;5062122;28;19917;-80
2023/06/26 07:47:38;;;;;;;;;;;22.70;81.40;;;;;;5062162;28;20707;-80
2023/06/26 07:50:04;;;;;;;;;;;22.80;81.00;;;;;;5048353;28;19934;-80
2023/06/26 07:52:32;;;;;;;;;;;22.60;80.80;;;;;;5051811;28;19939;-80
2023/06/26 07:54:57;;;;;;;;;;;22.90;80.90;;;;;;5061344;28;19966;-80
2023/06/26 07:57:23;;;;;;;;;;;22.80;79.00;;;;;;5069325;28;19912;-80
2023/06/26 07:59:49;;;;;;;;;;;22.90;78.90;;;;;;5075010;28;19912;-80
2023/06/26 08:02:15;;;;;;;;;;;23.00;78.30;;;;;;5045348;28;19913;-80
2023/06/26 08:04:40;;;;;;;;;;;23.20;78.40;;;;;;5048306;28;19913;-80
2023/06/26 08:07:06;;;;;;;;;;;23.40;78.70;;;;;;5058958;28;19920;-80
2023/06/26 08:09:32;;;;;;;;;;;23.40;77.40;;;;;;5067912;28;19916;-81
2023/06/26 08:11:58;;;;;;;;;;;23.40;75.50;;;;;;5038195;28;19987;-80
2023/06/26 08:14:24;;;;;;;;;;;23.40;75.60;;;;;;5053957;28;19913;-80
2023/06/26 08:16:49;;;;;;;;;;;23.50;74.20;;;;;;5057659;28;19969;-80
2023/06/26 08:19:15;;;;;;;;;;;24.00;74.80;;;;;;5065554;28;20395;-80
2023/06/26 08:21:41;;;;;;;;;;;23.90;75.30;;;;;;5061081;28;19912;-80
2023/06/26 08:24:07;;;;;;;;;;;24.20;74.70;;;;;;5037728;28;20023;-80
2023/06/26 08:26:33;;;;;;;;;;;24.00;74.00;;;;;;5055238;28;20590;-80
2023/06/26 08:28:59;;;;;;;;;;;23.50;73.70;;;;;;5038095;28;19927;-80
2023/06/26 08:31:24;;;;;;;;;;;23.70;74.40;;;;;;5056012;28;19913;-80
2023/06/26 08:33:50;;;;;;;;;;;23.70;74.90;;;;;;5062899;28;19912;-80
2023/06/26 08:36:16;;;;;;;;;;;24.00;74.50;;;;;;5065553;28;20814;-80
2023/06/26 08:38:41;;;;;;;;;;;24.10;72.60;;;;;;5060885;28;20007;-80
2023/06/26 08:41:07;;;;;;;;;;;24.90;71.50;;;;;;5059074;28;19912;-80
2023/06/26 08:43:33;;;;;;;;;;;25.00;70.90;;;;;;5061233;28;19912;-80
2023/06/26 08:45:59;;;;;;;;;;;24.50;71.20;;;;;;5046228;28;20272;-80
2023/06/26 08:48:25;;;;;;;;;;;24.10;73.70;;;;;;5050789;28;19918;-80
2023/06/26 08:50:52;;;;;;;;;;;24.10;73.70;;;;;;5046744;28;19919;-80
2023/06/26 08:53:40;;;;;;;;;;;23.70;75.00;;;;;;5049830;28;20027;-80
2023/06/26 08:56:06;;;;;;;;;;;23.80;75.30;;;;;;5062220;28;19919;-80
2023/06/26 08:58:32;;;;;;;;;;;24.30;74.90;;;;;;5054826;28;19997;-80
2023/06/26 09:00:59;;;;;;;;;;;24.70;73.70;;;;;;5054693;28;19951;-80
2023/06/26 09:03:25;;;;;;;;;;;24.60;72.90;;;;;;5061433;28;19920;-80
2023/06/26 09:05:51;;;;;;;;;;;24.90;71.20;;;;;;5030550;28;19913;-80
2023/06/26 09:08:17;;;;;;;;;;;25.00;72.80;;;;;;5064241;28;19915;-80
2023/06/26 09:10:42;;;;;;;;;;;25.20;71.90;;;;;;5055570;28;19960;-81
2023/06/26 09:13:08;;;;;;;;;;;25.40;71.10;;;;;;5056980;28;19917;-80
2023/06/26 09:15:38;;;;;;;;;;;25.60;68.70;;;;;;5056571;28;20376;-80
2023/06/26 09:18:04;;;;;;;;;;;26.20;66.80;;;;;;5068891;28;19927;-80
2023/06/26 09:20:32;;;;;;;;;;;26.50;66.20;;;;;;5046399;28;20290;-80
2023/06/26 09:22:58;;;;;;;;;;;27.80;65.90;;;;;;5057324;28;19916;-80
2023/06/26 09:25:24;;;;;;;;;;;28.50;61.60;;;;;;5063949;28;20477;-80
2023/06/26 09:27:50;;;;;;;;;;;27.70;62.80;;;;;;5063602;28;19920;-81
2023/06/26 09:30:18;;;;;;;;;;;27.60;62.40;;;;;;5050939;28;19958;-80
2023/06/26 09:32:44;;;;;;;;;;;30.40;57.60;;;;;;5065781;28;19999;-81
2023/06/26 09:35:10;;;;;;;;;;;30.80;52.40;;;;;;5058949;28;19912;-81
2023/06/26 09:37:36;;;;;;;;;;;30.90;52.80;;;;;;5063887;28;20021;-81
2023/06/26 09:40:02;;;;;;;;;;;29.70;56.00;;;;;;5064146;28;19916;-81
2023/06/26 09:42:28;;;;;;;;;;;28.60;56.40;;;;;;5060379;28;19939;-80
2023/06/26 09:44:55;;;;;;;;;;;33.20;53.50;;;;;;5051341;28;19913;-81
2023/06/26 09:47:20;;;;;;;;;;;32.60;52.20;;;;;;5057547;28;20003;-81
2023/06/26 09:49:46;;;;;;;;;;;31.30;51.90;;;;;;5062661;28;20022;-80
2023/06/26 09:52:16;;;;;;;;;;;31.50;53.40;;;;;;5059412;28;19913;-80
2023/06/26 09:54:43;;;;;;;;;;;31.40;54.80;;;;;;5047086;28;19920;-81
2023/06/26 09:57:10;;;;;;;;;;;32.80;53.40;;;;;;5064027;28;19919;-81
2023/06/26 09:59:35;;;;;;;;;;;34.00;49.00;;;;;;5058854;28;20393;-80
2023/06/26 10:02:01;;;;;;;;;;;30.80;50.90;;;;;;5058501;28;19912;-81
2023/06/26 10:04:26;;;;;;;;;;;29.10;56.40;;;;;;5048817;28;19942;-80
2023/06/26 10:06:54;;;;;;;;;;;28.30;58.00;;;;;;5062835;28;19921;-80
2023/06/26 10:09:21;;;;;;;;;;;27.60;57.00;;;;;;5058580;28;19916;-80
2023/06/26 10:11:57;;;;;;;;;;;30.60;59.10;;;;;;5049523;28;19959;-81
2023/06/26 10:14:26;;;;;;;;;;;34.00;52.90;;;;;;5060307;28;19913;-80
2023/06/26 10:16:56;;;;;;;;;;;34.50;50.10;;;;;;5058487;28;19913;-80
2023/06/26 10:19:25;;;;;;;;;;;34.70;47.00;;;;;;5052449;28;19987;-80
2023/06/26 10:21:53;;;;;;;;;;;33.90;48.20;;;;;;5050014;28;19913;-81
2023/06/26 10:24:20;;;;;;;;;;;31.50;52.40;;;;;;5062041;28;20461;-80
2023/06/26 10:26:46;;;;;;;;;;;32.70;53.40;;;;;;5055288;28;19928;-80
2023/06/26 10:29:15;;;;;;;;;;;33.10;53.00;;;;;;5063152;28;19912;-81
2023/06/26 10:31:42;;;;;;;;;;;33.40;45.90;;;;;;5045111;28;19913;-80
2023/06/26 10:34:08;;;;;;;;;;;34.40;47.40;;;;;;5057192;28;19967;-80
2023/06/26 10:36:35;;;;;;;;;;;34.20;49.00;;;;;;5052684;28;20346;-80
2023/06/26 10:39:07;;;;;;;;;;;35.10;49.80;;;;;;5050522;28;19959;-80
2023/06/26 10:41:42;;;;;;;;;;;35.70;48.70;;;;;;5059101;28;19986;-81
2023/06/26 10:44:09;;;;;;;;;;;35.80;47.20;;;;;;5065304;28;20033;-81
2023/06/26 10:46:55;;;;;;;;;;;34.90;45.70;;;;;;5062802;28;19917;-80
2023/06/26 10:49:25;;;;;;;;;;;34.00;44.80;;;;;;5039858;28;20687;-81
2023/06/26 10:51:50;;;;;;;;;;;32.00;50.40;;;;;;5045051;28;20018;-80
2023/06/26 10:54:18;;;;;;;;;;;30.90;52.10;;;;;;5063384;28;19992;-80
2023/06/26 10:56:44;;;;;;;;;;;30.10;53.40;;;;;;5062431;28;20489;-81
2023/06/26 10:59:14;;;;;;;;;;;29.80;55.60;;;;;;5049664;28;19956;-80
2023/06/26 11:01:42;;;;;;;;;;;29.40;56.60;;;;;;5054528;28;19916;-80
2023/06/26 11:04:08;;;;;;;;;;;28.30;56.00;;;;;;5062873;28;20791;-80
2023/06/26 11:06:34;;;;;;;;;;;28.60;56.50;;;;;;5056076;28;19967;-80
2023/06/26 11:09:02;;;;;;;;;;;28.40;59.10;;;;;;5056269;28;19991;-80
2023/06/26 11:11:46;;;;;;;;;;;28.60;62.10;;;;;;5062427;28;19989;-80
2023/06/26 11:14:12;;;;;;;;;;;28.80;60.70;;;;;;5054405;28;19912;-81
2023/06/26 11:16:38;;;;;;;;;;;28.30;57.30;;;;;;5063066;28;20030;-80
2023/06/26 11:19:03;;;;;;;;;;;28.50;59.00;;;;;;5056843;28;19971;-80
2023/06/26 11:21:29;;;;;;;;;;;27.60;57.60;;;;;;5062443;28;19952;-80
2023/06/26 11:23:58;;;;;;;;;;;27.50;60.20;;;;;;5052545;28;19963;-80
2023/06/26 11:26:23;;;;;;;;;;;27.20;57.20;;;;;;5057174;28;19928;-80
2023/06/26 11:28:49;;;;;;;;;;;27.10;59.00;;;;;;5053965;28;19917;-80
2023/06/26 11:31:27;;;;;;;;;;;27.10;62.20;;;;;;5062672;28;19912;-80
2023/06/26 11:33:54;;;;;;;;;;;27.60;59.40;;;;;;5059790;28;20272;-80
2023/06/26 11:36:22;;;;;;;;;;;27.40;63.90;;;;;;5061651;28;20298;-80
2023/06/26 11:38:52;;;;;;;;;;;27.30;64.50;;;;;;5060449;28;19924;-80
2023/06/26 11:41:17;;;;;;;;;;;27.30;67.30;;;;;;5062099;28;19913;-80
2023/06/26 11:43:43;;;;;;;;;;;26.90;63.90;;;;;;5062030;28;20478;-80
2023/06/26 11:46:09;;;;;;;;;;;26.90;66.30;;;;;;5046764;28;19974;-80
2023/06/26 11:48:34;;;;;;;;;;;27.20;64.10;;;;;;5052284;28;19920;-81
2023/06/26 11:51:00;;;;;;;;;;;27.10;64.10;;;;;;5061821;28;20379;-80
2023/06/26 11:53:26;;;;;;;;;;;26.80;66.00;;;;;;5061526;28;19965;-80
2023/06/26 11:55:51;;;;;;;;;;;26.90;66.30;;;;;;5084998;28;19912;-80
2023/06/26 11:58:17;;;;;;;;;;;27.20;67.90;;;;;;5067557;28;20618;-80
2023/06/26 12:00:43;;;;;;;;;;;27.00;64.80;;;;;;5049523;28;19912;-80
2023/06/26 12:03:09;;;;;;;;;;;27.00;64.90;;;;;;5051778;28;20328;-80
2023/06/26 12:05:34;;;;;;;;;;;26.80;67.10;;;;;;5062151;28;19931;-81
2023/06/26 12:08:01;;;;;;;;;;;26.90;66.50;;;;;;5053457;28;19920;-80
2023/06/26 12:10:27;;;;;;;;;;;27.00;68.00;;;;;;5051110;28;19920;-80
2023/06/26 12:12:53;;;;;;;;;;;26.90;64.40;;;;;;5054960;28;20719;-81
2023/06/26 12:15:19;;;;;;;;;;;26.60;67.50;;;;;;5066328;28;19920;-80
2023/06/26 12:17:44;;;;;;;;;;;26.70;68.60;;;;;;5057682;28;20335;-80
2023/06/26 12:20:21;;;;;;;;;;;26.70;68.70;;;;;;5066195;28;19913;-80
2023/06/26 12:22:47;;;;;;;;;;;26.70;70.70;;;;;;5058030;28;19919;-81
2023/06/26 12:25:13;;;;;;;;;;;26.50;69.00;;;;;;5051862;28;19916;-80
2023/06/26 12:27:39;;;;;;;;;;;26.40;67.00;;;;;;5058842;28;19931;-80
2023/06/26 12:30:05;;;;;;;;;;;26.40;67.20;;;;;;5053485;28;20166;-80
2023/06/26 12:32:31;;;;;;;;;;;26.30;68.40;;;;;;5060117;28;19913;-80
2023/06/26 12:34:57;;;;;;;;;;;26.30;69.60;;;;;;5041861;28;19985;-80
2023/06/26 12:37:22;;;;;;;;;;;26.20;70.10;;;;;;5065865;28;19920;-80
2023/06/26 12:39:52;;;;;;;;;;;26.30;67.10;;;;;;5056581;28;19916;-80
2023/06/26 12:42:25;;;;;;;;;;;26.30;70.20;;;;;;5060353;28;19913;-81
2023/06/26 12:44:51;;;;;;;;;;;26.40;68.50;;;;;;5052181;28;20720;-81
2023/06/26 12:47:17;;;;;;;;;;;26.20;69.20;;;;;;5064917;28;19920;-80
2023/06/26 12:49:43;;;;;;;;;;;26.20;71.50;;;;;;5052974;28;20376;-80
2023/06/26 12:52:10;;;;;;;;;;;26.10;71.30;;;;;;5053387;28;19916;-80
2023/06/26 12:54:36;;;;;;;;;;;26.40;69.20;;;;;;5052524;28;19919;-80
2023/06/26 12:57:03;;;;;;;;;;;26.30;68.60;;;;;;5070144;28;19912;-81
2023/06/26 12:59:30;;;;;;;;;;;26.30;70.10;;;;;;5054117;28;19920;-81
2023/06/26 13:01:56;;;;;;;;;;;26.40;71.60;;;;;;5049090;28;20662;-81
2023/06/26 13:04:21;;;;;;;;;;;26.10;70.20;;;;;;5049430;28;19967;-80
2023/06/26 13:06:47;;;;;;;;;;;26.10;68.70;;;;;;5050612;28;20685;-80
2023/06/26 13:09:12;;;;;;;;;;;26.20;66.50;;;;;;5059342;28;19985;-81
2023/06/26 13:11:38;;;;;;;;;;;26.10;67.20;;;;;;5045664;28;19916;-80
2023/06/26 13:14:04;;;;;;;;;;;26.00;70.90;;;;;;5054337;28;19917;-80
2023/06/26 13:16:29;;;;;;;;;;;25.90;64.80;;;;;;5054240;28;19913;-81
2023/06/26 13:18:55;;;;;;;;;;;26.10;68.90;;;;;;5059324;28;19909;-80
2023/06/26 13:21:21;;;;;;;;;;;25.90;69.70;;;;;;5063338;28;19923;-81
2023/06/26 13:23:47;;;;;;;;;;;25.90;72.70;;;;;;5053821;28;19912;-80
2023/06/26 13:26:12;;;;;;;;;;;26.20;71.30;;;;;;5063569;28;19928;-80
2023/06/26 13:28:38;;;;;;;;;;;26.10;69.90;;;;;;5042154;28;19962;-81
2023/06/26 13:31:04;;;;;;;;;;;26.00;70.40;;;;;;5065026;28;19970;-81
2023/06/26 13:33:30;;;;;;;;;;;26.10;68.00;;;;;;5041640;28;19912;-80
2023/06/26 13:35:55;;;;;;;;;;;26.00;68.80;;;;;;5071077;28;20386;-80
2023/06/26 13:38:24;;;;;;;;;;;26.00;68.60;;;;;;5064839;28;19912;-80
2023/06/26 13:40:57;;;;;;;;;;;25.90;68.60;;;;;;5069177;28;19943;-81
2023/06/26 13:43:23;;;;;;;;;;;26.00;70.10;;;;;;5075966;28;19912;-81
2023/06/26 13:45:49;;;;;;;;;;;26.10;70.70;;;;;;5045597;28;19944;-80
2023/06/26 13:48:14;;;;;;;;;;;26.10;74.00;;;;;;5059130;28;19927;-81
2023/06/26 13:50:40;;;;;;;;;;;26.10;68.80;;;;;;5045519;28;20400;-81
2023/06/26 13:53:06;;;;;;;;;;;26.10;67.60;;;;;;5059208;28;19979;-81
2023/06/26 13:55:32;;;;;;;;;;;26.20;69.00;;;;;;5055163;28;19916;-81
2023/06/26 13:57:58;;;;;;;;;;;26.30;70.60;;;;;;5057998;28;19913;-80
2023/06/26 14:00:24;;;;;;;;;;;26.20;65.50;;;;;;5058173;28;19912;-81
2023/06/26 14:02:49;;;;;;;;;;;26.00;64.60;;;;;;5050177;28;19936;-80
2023/06/26 14:05:17;;;;;;;;;;;26.00;67.20;;;;;;5053320;28;19913;-81
2023/06/26 14:07:43;;;;;;;;;;;25.70;64.00;;;;;;5056094;28;19964;-80
2023/06/26 14:10:09;;;;;;;;;;;25.70;66.30;;;;;;5062738;28;19916;-80